Аэропорт: Ленкорань. Ленкорань

ICAO: UBBL

METAR:
2019-07-23 18:00:00
UBBL 231800Z 00000KT 9000 NSC 23/20 Q1008 R33/CLRD// NOSIG RMK MT OP
METAR:
2019-07-23 17:12:00
TAF UBBL 231712Z 2318/2418 16010KT 9999 SCT100 TX32/2410Z TN24/2402Z TEMPO 2318/2324 VRB04KT FEW050CB BKN100